Time;durP1;ratioP1;P1;durP2;ratioP2;P2;SDS_P1;SDS_P2;PMS_P1;PMS_P2;Temp;Humidity;BMP_temperature;BMP_pressure;BME280_temperature;BME280_humidity;BME280_pressure;Samples;Min_cycle;Max_cycle;Signal;HPM_P1;HPM_P2
2021/12/18 00:00:32;;;;;;;0.10;0.10;;;;;;;20.22;45.40;103541.97;5150871;27;20058;-36
2021/12/18 00:02:57;;;;;;;0.10;0.10;;;;;;;20.22;45.24;103536.44;5146354;27;20039;-36
2021/12/18 00:05:23;;;;;;;0.20;0.20;;;;;;;20.21;45.10;103552.19;5153253;27;20102;-36
2021/12/18 00:07:49;;;;;;;0.10;0.10;;;;;;;20.22;45.29;103547.50;5133992;27;20081;-35
2021/12/18 00:10:19;;;;;;;0.20;0.20;;;;;;;20.19;45.13;103548.78;5148733;27;20042;-36
2021/12/18 00:12:49;;;;;;;0.20;0.20;;;;;;;20.21;45.18;103548.59;5115671;27;20130;-36
2021/12/18 00:15:16;;;;;;;0.20;0.20;;;;;;;20.20;45.08;103549.63;5151634;27;20429;-35
2021/12/18 00:17:42;;;;;;;0.20;0.20;;;;;;;20.22;45.12;103550.28;5149709;27;20045;-36
2021/12/18 00:20:08;;;;;;;0.10;0.10;;;;;;;20.19;45.16;103548.78;5146000;27;20066;-35
2021/12/18 00:22:34;;;;;;;0.20;0.20;;;;;;;20.19;45.41;103546.03;5132032;27;20040;-36
2021/12/18 00:25:00;;;;;;;0.20;0.20;;;;;;;20.21;44.91;103549.44;5128995;27;20052;-35
2021/12/18 00:27:25;;;;;;;0.10;0.10;;;;;;;20.20;45.17;103544.09;5112588;27;20051;-37
2021/12/18 00:29:51;;;;;;;0.20;0.20;;;;;;;20.20;44.96;103546.88;5134013;27;20107;-35
2021/12/18 00:32:17;;;;;;;0.20;0.20;;;;;;;20.20;44.98;103541.34;5131465;27;20043;-35
2021/12/18 00:34:42;;;;;;;0.20;0.20;;;;;;;20.20;45.27;103544.09;5127577;27;20078;-38
2021/12/18 00:37:08;;;;;;;0.20;0.20;;;;;;;20.20;45.02;103539.41;5137069;27;20043;-35
2021/12/18 00:39:38;;;;;;;0.20;0.20;;;;;;;20.18;45.08;103547.09;5130746;27;20047;-36
2021/12/18 00:42:19;;;;;;;0.20;0.20;;;;;;;20.17;45.10;103542.66;5128738;27;20119;-37
2021/12/18 00:44:45;;;;;;;0.20;0.20;;;;;;;20.19;45.35;103547.94;5129239;27;20046;-35
2021/12/18 00:47:11;;;;;;;0.20;0.20;;;;;;;20.18;45.16;103541.56;5112647;27;20390;-36
2021/12/18 00:49:37;;;;;;;0.10;0.10;;;;;;;20.19;45.03;103531.34;5133979;27;20105;-37
2021/12/18 00:52:03;;;;;;;0.20;0.20;;;;;;;20.18;45.11;103544.34;5133622;27;20381;-36
2021/12/18 00:54:29;;;;;;;0.20;0.20;;;;;;;20.18;45.31;103547.09;5124069;27;20043;-35
2021/12/18 00:56:55;;;;;;;0.20;0.20;;;;;;;20.18;45.27;103544.34;5131767;27;20484;-36
2021/12/18 00:59:20;;;;;;;0.20;0.20;;;;;;;20.18;44.86;103538.81;5130995;27;20051;-36
2021/12/18 01:01:47;;;;;;;0.20;0.20;;;;;;;20.18;45.05;103544.34;5133245;27;20346;-36
2021/12/18 01:04:13;;;;;;;0.20;0.20;;;;;;;20.17;45.04;103541.81;5125396;27;20039;-36
2021/12/18 01:06:39;;;;;;;0.10;0.10;;;;;;;20.18;45.37;103546.25;5137902;27;20050;-37
2021/12/18 01:09:04;;;;;;;0.20;0.20;;;;;;;20.17;45.25;103539.03;5127651;27;20427;-35
2021/12/18 01:11:33;;;;;;;0.20;0.20;;;;;;;20.16;44.97;103549.22;5131658;27;20043;-39
2021/12/18 01:16:46;;;;;;;0.20;0.20;;;;;;;20.17;45.12;103537.13;5113909;27;20471;-36
2021/12/18 01:24:43;;;;;;;0.20;0.20;;;;;;;20.17;45.40;103544.56;5112250;27;20095;-36
2021/12/18 01:27:09;;;;;;;0.10;0.10;;;;;;;20.17;45.10;103547.34;5130160;27;20491;-38
2021/12/18 01:29:34;;;;;;;0.20;0.20;;;;;;;20.16;44.97;103537.31;5128937;27;20081;-36
2021/12/18 01:32:00;;;;;;;0.10;0.10;;;;;;;20.15;45.31;103542.00;5128634;27;20047;-36
2021/12/18 01:34:26;;;;;;;0.20;0.20;;;;;;;20.16;45.17;103543.69;5127301;27;20427;-35
2021/12/18 01:36:51;;;;;;;0.20;0.20;;;;;;;20.16;44.94;103540.09;5128625;27;20051;-36
2021/12/18 01:39:17;;;;;;;0.20;0.20;;;;;;;20.17;44.92;103539.03;5128353;27;20043;-36
2021/12/18 01:42:11;;;;;;;0.17;0.17;;;;;;;20.15;45.18;103541.16;5133987;27;20046;-36
2021/12/18 01:52:53;;;;;;;0.20;0.20;;;;;;;20.14;45.14;103526.50;5103745;27;20047;-37
2021/12/18 01:55:21;;;;;;;0.20;0.20;;;;;;;20.13;45.02;103524.81;5128424;27;20130;-36
2021/12/18 01:57:46;;;;;;;0.20;0.20;;;;;;;20.14;45.10;103517.34;5111294;27;20381;-39
2021/12/18 02:00:24;;;;;;;0.20;0.20;;;;;;;20.14;44.94;103526.50;5127917;27;20092;-37
2021/12/18 02:02:49;;;;;;;0.10;0.10;;;;;;;20.14;45.24;103525.66;5110379;27;20047;-36
2021/12/18 02:05:15;;;;;;;0.20;0.20;;;;;;;20.14;45.10;103528.41;5128910;27;20043;-36
2021/12/18 02:07:41;;;;;;;0.20;0.20;;;;;;;20.14;45.11;103520.13;5111210;27;20300;-36
2021/12/18 02:10:16;;;;;;;0.20;0.20;;;;;;;20.14;44.89;103525.66;5127786;27;20055;-35
2021/12/18 02:12:52;;;;;;;0.20;0.20;;;;;;;20.13;44.86;103527.56;5129014;27;20047;-35
2021/12/18 02:20:58;;;;;;;0.30;0.30;;;;;;;20.13;45.05;103530.34;5082010;27;20049;-39
2021/12/18 02:23:24;;;;;;;0.20;0.20;;;;;;;20.12;44.97;103534.19;5109201;27;20043;-37
2021/12/18 02:25:50;;;;;;;0.20;0.20;;;;;;;20.13;44.95;103533.09;5128067;27;20081;-35
2021/12/18 02:28:21;;;;;;;0.20;0.20;;;;;;;20.14;45.19;103533.94;5129368;27;20381;-35
2021/12/18 02:30:48;;;;;;;0.20;0.20;;;;;;;20.14;45.03;103523.72;5111062;28;20055;-39
2021/12/18 02:33:14;;;;;;;0.20;0.20;;;;;;;20.12;45.14;103520.34;5109784;27;20081;-36
2021/12/18 02:35:46;;;;;;;0.20;0.20;;;;;;;20.13;44.91;103518.44;5127769;27;20190;-36
2021/12/18 02:38:18;;;;;;;0.20;0.20;;;;;;;20.12;44.95;103522.25;5129956;27;20131;-35
2021/12/18 02:43:33;;;;;;;0.20;0.20;;;;;;;20.12;44.94;103517.59;5101600;27;20043;-35
2021/12/18 02:46:00;;;;;;;0.20;0.20;;;;;;;20.13;44.82;103510.97;5091390;27;20048;-35
2021/12/18 02:48:27;;;;;;;0.20;0.20;;;;;;;20.12;45.06;103506.53;5125336;27;20047;-40
2021/12/18 02:50:55;;;;;;;0.20;0.20;;;;;;;20.13;45.07;103505.44;5124479;27;20306;-36
2021/12/18 02:53:22;;;;;;;0.20;0.20;;;;;;;20.12;44.99;103506.53;5105227;27;20043;-35
2021/12/18 02:55:56;;;;;;;0.20;0.20;;;;;;;20.12;45.08;103498.22;5129904;27;20079;-37
2021/12/18 02:58:22;;;;;;;0.20;0.20;;;;;;;20.11;45.11;103507.56;5130325;27;20042;-36
2021/12/18 03:00:49;;;;;;;0.20;0.20;;;;;;;20.11;44.92;103506.72;5129620;27;20137;-35
2021/12/18 03:03:16;;;;;;;0.20;0.20;;;;;;;20.10;45.25;103500.34;5127088;27;20051;-35
2021/12/18 03:05:54;;;;;;;0.20;0.20;;;;;;;20.12;45.33;103497.34;5128207;27;20047;-36
2021/12/18 03:08:34;;;;;;;0.10;0.10;;;;;;;20.11;45.38;103502.03;5128973;27;20038;-36
2021/12/18 03:27:30;;;;;;;0.20;0.20;;;;;;;20.08;45.18;103477.59;5167264;27;20238;-35
2021/12/18 03:29:56;;;;;;;0.20;0.20;;;;;;;20.09;45.19;103482.06;5139189;27;20058;-37
2021/12/18 03:32:23;;;;;;;0.20;0.20;;;;;;;20.09;45.02;103475.69;5108716;27;20553;-36
2021/12/18 03:34:51;;;;;;;0.20;0.20;;;;;;;20.09;45.10;103473.75;5105156;27;20050;-35
2021/12/18 03:37:16;;;;;;;0.20;0.20;;;;;;;20.09;45.12;103476.53;5143331;27;20477;-36
2021/12/18 03:39:42;;;;;;;0.20;0.20;;;;;;;20.09;45.32;103482.06;5127243;27;20087;-35
2021/12/18 03:42:08;;;;;;;0.20;0.20;;;;;;;20.09;44.96;103476.53;5124591;27;20187;-35
2021/12/18 03:44:35;;;;;;;0.20;0.20;;;;;;;20.08;45.19;103477.59;5127153;27;20104;-35
2021/12/18 03:47:01;;;;;;;0.20;0.20;;;;;;;20.09;45.05;103478.44;5145963;27;20039;-35
2021/12/18 03:49:26;;;;;;;0.20;0.20;;;;;;;20.09;45.25;103475.69;5126612;27;20050;-35
2021/12/18 03:51:52;;;;;;;0.20;0.20;;;;;;;20.08;45.30;103472.06;5144185;27;20047;-35
2021/12/18 03:54:18;;;;;;;0.20;0.20;;;;;;;20.09;45.30;103476.53;5140978;27;20397;-35
2021/12/18 03:56:44;;;;;;;0.20;0.20;;;;;;;20.09;44.85;103483.97;5139429;27;20058;-35
2021/12/18 03:59:10;;;;;;;0.20;0.20;;;;;;;20.09;45.38;103487.59;5123988;27;20138;-35
2021/12/18 04:01:35;;;;;;;0.20;0.20;;;;;;;20.09;44.92;103483.97;5125333;27;20042;-35
2021/12/18 04:04:01;;;;;;;0.20;0.20;;;;;;;20.08;45.20;103485.03;5140234;27;20062;-35
2021/12/18 04:06:28;;;;;;;0.20;0.20;;;;;;;20.10;45.04;103485.66;5106295;27;20062;-37
2021/12/18 04:08:53;;;;;;;0.20;0.20;;;;;;;20.08;45.18;103488.66;5123169;27;20047;-36
2021/12/18 04:11:20;;;;;;;0.20;0.20;;;;;;;20.09;45.08;103495.06;5143294;27;20386;-35
2021/12/18 04:13:46;;;;;;;0.20;0.20;;;;;;;20.08;45.29;103493.31;5139748;27;20363;-36
2021/12/18 04:16:12;;;;;;;0.20;0.20;;;;;;;20.08;45.12;103499.75;5142860;27;20468;-35
2021/12/18 04:18:38;;;;;;;0.20;0.20;;;;;;;20.09;45.26;103500.59;5106542;27;20494;-35
2021/12/18 04:21:04;;;;;;;0.20;0.20;;;;;;;20.07;45.01;103499.94;5123569;27;20043;-36
2021/12/18 04:23:30;;;;;;;0.20;0.20;;;;;;;20.08;45.16;103496.09;5121155;27;20047;-36
2021/12/18 04:25:56;;;;;;;0.20;0.20;;;;;;;20.07;45.15;103500.78;5127370;27;20062;-35
2021/12/18 04:28:23;;;;;;;0.20;0.20;;;;;;;20.08;45.18;103496.09;5120799;27;20077;-35
2021/12/18 04:30:49;;;;;;;0.20;0.20;;;;;;;20.06;45.06;103504.63;5131565;27;20047;-36
2021/12/18 04:33:15;;;;;;;0.20;0.20;;;;;;;20.07;45.23;103491.66;5113183;27;20043;-37
2021/12/18 04:35:42;;;;;;;0.20;0.20;;;;;;;20.07;45.28;103497.19;5136422;27;20434;-35
2021/12/18 04:38:08;;;;;;;0.15;0.15;;;;;;;20.06;45.07;103493.56;5107776;27;20104;-36
2021/12/18 04:40:34;;;;;;;0.20;0.20;;;;;;;20.06;45.33;103496.34;5110884;28;20043;-35
2021/12/18 04:43:01;;;;;;;0.20;0.20;;;;;;;20.07;45.00;103498.03;5115051;28;20147;-35
2021/12/18 04:45:27;;;;;;;0.20;0.20;;;;;;;20.07;44.98;103500.78;5109475;28;20398;-35
2021/12/18 04:47:52;;;;;;;0.20;0.20;;;;;;;20.06;44.98;103499.09;5105558;28;20044;-35
2021/12/18 04:50:19;;;;;;;0.20;0.20;;;;;;;20.06;45.04;103504.63;5115475;28;20047;-36
2021/12/18 04:52:45;;;;;;;0.20;0.20;;;;;;;20.07;45.13;103502.72;5110442;28;20047;-38
2021/12/18 04:55:11;;;;;;;0.20;0.20;;;;;;;20.07;44.94;103511.00;5109883;28;20052;-36
2021/12/18 04:57:37;;;;;;;0.20;0.20;;;;;;;20.05;44.99;103509.31;5114529;28;20047;-38
2021/12/18 05:00:05;;;;;;;0.20;0.20;;;;;;;20.06;44.99;103499.09;5111494;28;20043;-36
2021/12/18 05:02:37;;;;;;;0.20;0.20;;;;;;;20.05;45.05;103505.72;5109007;28;20091;-36
2021/12/18 05:05:03;;;;;;;0.20;0.20;;;;;;;20.05;44.90;103506.56;5105333;28;20470;-36
2021/12/18 05:07:29;;;;;;;0.17;0.17;;;;;;;20.07;45.32;103505.47;5114068;28;20048;-35
2021/12/18 05:09:55;;;;;;;0.20;0.20;;;;;;;20.06;44.91;103507.41;5110898;28;20055;-36
2021/12/18 05:12:21;;;;;;;0.20;0.20;;;;;;;20.06;44.91;103510.16;5109395;28;20044;-36
2021/12/18 05:14:46;;;;;;;0.20;0.20;;;;;;;20.04;45.05;103510.41;5113506;28;20044;-35
2021/12/18 05:17:12;;;;;;;0.20;0.20;;;;;;;20.04;45.33;103513.16;5106926;28;20058;-36
2021/12/18 05:19:38;;;;;;;0.20;0.20;;;;;;;20.05;45.00;103514.84;5103488;28;20043;-36
2021/12/18 05:22:04;;;;;;;0.20;0.20;;;;;;;20.05;45.26;103511.25;5110722;28;20039;-37
2021/12/18 05:24:30;;;;;;;0.20;0.20;;;;;;;20.04;44.99;103504.03;5110293;28;20043;-35
2021/12/18 05:26:56;;;;;;;0.20;0.20;;;;;;;20.04;44.91;103507.63;5112830;28;20062;-36
2021/12/18 05:29:22;;;;;;;0.20;0.20;;;;;;;20.05;44.86;103500.19;5110234;28;20085;-37
2021/12/18 05:31:48;;;;;;;0.20;0.20;;;;;;;20.05;45.41;103503.78;5114217;28;20051;-37
2021/12/18 05:34:21;;;;;;;0.20;0.20;;;;;;;20.05;45.05;103494.66;5112333;28;20040;-37
2021/12/18 05:37:13;;;;;;;0.20;0.20;;;;;;;20.04;45.19;103496.56;5110883;28;20048;-37
2021/12/18 05:39:33;;;;;;;0.20;0.20;;;;;;;20.03;45.11;103503.19;5114977;28;20054;-37
2021/12/18 05:41:58;;;;;;;0.20;0.20;;;;;;;20.05;45.12;103511.25;5112379;28;20039;-37
2021/12/18 05:44:26;;;;;;;0.20;0.20;;;;;;;20.05;44.65;103505.72;5106624;28;20087;-36
2021/12/18 05:46:52;;;;;;;0.20;0.20;;;;;;;20.04;44.99;103509.56;5106945;28;20112;-36
2021/12/18 05:49:18;;;;;;;0.20;0.20;;;;;;;20.04;44.87;103509.56;5110660;28;20043;-35
2021/12/18 05:51:44;;;;;;;0.20;0.20;;;;;;;20.05;45.04;103509.31;5111542;28;20040;-35
2021/12/18 05:54:10;;;;;;;0.20;0.20;;;;;;;20.03;45.06;103500.41;5108506;28;20670;-35
2021/12/18 05:56:36;;;;;;;0.20;0.20;;;;;;;20.04;45.14;103509.56;5117798;28;20051;-36
2021/12/18 05:59:03;;;;;;;0.20;0.20;;;;;;;20.04;45.19;103513.16;5108531;28;20091;-35
2021/12/18 06:01:29;;;;;;;0.20;0.20;;;;;;;20.03;45.31;103518.91;5111310;28;20062;-36
2021/12/18 06:03:54;;;;;;;0.20;0.20;;;;;;;20.04;45.27;103517.84;5111206;28;20043;-35
2021/12/18 06:06:22;;;;;;;0.20;0.20;;;;;;;20.04;45.11;103515.09;5116572;28;20094;-36
2021/12/18 06:08:48;;;;;;;0.20;0.20;;;;;;;20.04;45.08;103520.63;5111356;27;20055;-36
2021/12/18 06:11:16;;;;;;;0.20;0.20;;;;;;;20.02;45.29;103523.59;5086085;28;20535;-35
2021/12/18 06:13:46;;;;;;;0.20;0.20;;;;;;;20.03;44.87;103521.66;5110355;28;20036;-36
2021/12/18 06:16:13;;;;;;;0.20;0.20;;;;;;;20.02;45.03;103531.88;5109650;28;20051;-36
2021/12/18 06:18:41;;;;;;;0.20;0.20;;;;;;;20.02;45.07;103529.13;5110767;27;20046;-36
2021/12/18 06:21:07;;;;;;;0.20;0.20;;;;;;;20.03;45.27;103528.06;5106822;28;20383;-35
2021/12/18 06:23:33;;;;;;;0.20;0.20;;;;;;;20.03;45.03;103533.59;5099485;28;20051;-36
2021/12/18 06:25:59;;;;;;;0.20;0.20;;;;;;;20.03;45.16;103530.84;5110375;28;20055;-35
2021/12/18 06:28:25;;;;;;;0.20;0.20;;;;;;;20.03;45.25;103528.06;5089856;28;20075;-36
2021/12/18 06:30:51;;;;;;;0.20;0.20;;;;;;;20.02;45.10;103526.34;5112720;28;20139;-36
2021/12/18 06:33:17;;;;;;;0.20;0.20;;;;;;;20.02;45.07;103523.59;5108544;28;20398;-37
2021/12/18 06:35:43;;;;;;;0.20;0.20;;;;;;;20.03;45.19;103524.44;5086110;28;20044;-35
2021/12/18 06:38:09;;;;;;;0.20;0.20;;;;;;;20.03;45.06;103525.31;5104979;27;20036;-35
2021/12/18 06:40:35;;;;;;;0.20;0.20;;;;;;;20.02;45.31;103519.97;5103754;28;20371;-36
2021/12/18 06:43:00;;;;;;;0.20;0.20;;;;;;;20.01;44.72;103515.53;5107817;28;20047;-35
2021/12/18 06:45:26;;;;;;;0.20;0.20;;;;;;;20.02;45.06;103515.28;5105276;28;20459;-36
2021/12/18 06:47:52;;;;;;;0.20;0.20;;;;;;;20.03;45.18;103519.78;5111200;28;20043;-36
2021/12/18 06:50:18;;;;;;;0.20;0.20;;;;;;;20.02;45.18;103526.34;5108705;28;20090;-37
2021/12/18 06:52:44;;;;;;;0.20;0.20;;;;;;;20.02;45.14;103522.75;5105713;28;20383;-43
2021/12/18 06:55:09;;;;;;;0.20;0.20;;;;;;;20.01;45.36;103516.38;5107411;28;20074;-35
2021/12/18 06:57:35;;;;;;;0.20;0.20;;;;;;;20.02;45.06;103523.59;5107696;27;20051;-36
2021/12/18 07:00:03;;;;;;;0.20;0.20;;;;;;;20.01;45.24;103516.38;5102096;28;20426;-36
2021/12/18 07:02:29;;;;;;;0.10;0.10;;;;;;;20.01;45.28;103524.66;5110502;27;20215;-36
2021/12/18 07:04:55;;;;;;;0.20;0.20;;;;;;;20.01;45.16;103515.53;5102823;28;20047;-36
2021/12/18 07:07:20;;;;;;;0.20;0.20;;;;;;;20.02;45.05;103514.44;5107068;28;20074;-35
2021/12/18 07:09:46;;;;;;;0.20;0.20;;;;;;;20.01;45.25;103516.38;5105249;28;20458;-37
2021/12/18 07:12:12;;;;;;;0.20;0.20;;;;;;;20.02;44.96;103519.97;5111946;28;20052;-37
2021/12/18 07:14:38;;;;;;;0.20;0.20;;;;;;;20.02;45.22;103517.22;5107702;28;20039;-35
2021/12/18 07:17:04;;;;;;;0.20;0.20;;;;;;;20.01;45.07;103521.91;5092531;28;20130;-36
2021/12/18 07:19:29;;;;;;;0.20;0.20;;;;;;;20.01;45.00;103524.66;5107492;28;20046;-37
2021/12/18 07:21:55;;;;;;;0.20;0.20;;;;;;;20.02;45.00;103520.81;5105348;27;20055;-37
2021/12/18 07:24:21;;;;;;;0.20;0.20;;;;;;;20.01;44.85;103524.66;5107848;28;20043;-37
2021/12/18 07:26:47;;;;;;;0.20;0.20;;;;;;;20.01;45.23;103523.81;5102118;28;20051;-37
2021/12/18 07:29:13;;;;;;;0.20;0.20;;;;;;;20.01;45.05;103519.13;5104039;28;20143;-37
2021/12/18 07:31:38;;;;;;;0.20;0.20;;;;;;;20.01;44.98;103521.06;5110426;28;20487;-36
2021/12/18 07:34:04;;;;;;;0.20;0.20;;;;;;;20.01;45.05;103523.81;5108381;28;20040;-38
2021/12/18 07:36:30;;;;;;;0.20;0.20;;;;;;;20.00;45.06;103524.91;5105179;28;20043;-36
2021/12/18 07:38:56;;;;;;;0.20;0.20;;;;;;;19.99;45.00;103517.66;5106574;28;20035;-38
2021/12/18 07:41:21;;;;;;;0.20;0.20;;;;;;;20.01;45.15;103519.13;5099291;28;20093;-37
2021/12/18 07:43:47;;;;;;;0.20;0.20;;;;;;;19.99;45.40;103521.28;5111924;28;20088;-38
2021/12/18 07:46:13;;;;;;;0.20;0.20;;;;;;;19.99;45.13;103510.22;5111805;28;20047;-37
2021/12/18 07:48:39;;;;;;;0.20;0.20;;;;;;;20.00;45.37;103516.59;5112638;28;20070;-37
2021/12/18 07:51:04;;;;;;;0.20;0.20;;;;;;;19.99;44.88;103513.00;5110594;28;20040;-37
2021/12/18 07:53:30;;;;;;;0.20;0.20;;;;;;;20.00;45.07;103514.69;5104908;28;20514;-37
2021/12/18 07:55:56;;;;;;;0.20;0.20;;;;;;;19.99;45.05;103513.00;5105783;28;20082;-38
2021/12/18 07:58:21;;;;;;;0.20;0.20;;;;;;;20.00;45.16;103517.44;5112454;28;20043;-36
2021/12/18 08:00:47;;;;;;;0.22;0.22;;;;;;;20.00;45.13;103511.06;5109212;28;20087;-37
2021/12/18 08:03:13;;;;;;;0.20;0.20;;;;;;;19.99;45.33;103514.88;5105469;28;20051;-37
2021/12/18 08:05:39;;;;;;;0.20;0.20;;;;;;;20.00;45.30;103511.06;5113643;28;20039;-37
2021/12/18 08:08:05;;;;;;;0.20;0.20;;;;;;;20.00;44.95;103511.06;5120164;27;20040;-36
2021/12/18 08:10:31;;;;;;;0.20;0.20;;;;;;;19.99;45.06;103515.75;5103982;28;20088;-37
2021/12/18 08:12:56;;;;;;;0.20;0.20;;;;;;;19.99;45.14;103512.13;5114042;28;20046;-38
2021/12/18 08:15:22;;;;;;;0.20;0.20;;;;;;;19.99;45.25;103514.88;5111620;28;20142;-37
2021/12/18 08:17:48;;;;;;;0.20;0.20;;;;;;;19.99;44.92;103514.88;5115328;28;20046;-37
2021/12/18 08:20:13;;;;;;;0.20;0.20;;;;;;;20.00;45.34;103513.84;5112015;28;20051;-36
2021/12/18 08:22:39;;;;;;;0.20;0.20;;;;;;;20.00;45.33;103517.44;5106473;28;20043;-37
2021/12/18 08:25:06;;;;;;;0.20;0.20;;;;;;;20.00;44.98;103516.59;5110572;28;20040;-37
2021/12/18 08:27:32;;;;;;;0.20;0.20;;;;;;;19.99;45.10;103517.66;5111399;27;20047;-37
2021/12/18 08:29:58;;;;;;;0.20;0.20;;;;;;;20.00;45.12;103513.84;5108165;28;20115;-37
2021/12/18 08:32:23;;;;;;;0.20;0.20;;;;;;;19.98;45.31;103514.03;5118597;28;20111;-36
2021/12/18 08:34:49;;;;;;;0.20;0.20;;;;;;;19.99;44.98;103518.53;5114310;28;20051;-37
2021/12/18 08:37:15;;;;;;;0.20;0.20;;;;;;;19.98;44.96;103519.56;5106219;28;20048;-37
2021/12/18 08:39:40;;;;;;;0.25;0.25;;;;;;;19.99;45.29;103517.66;5105777;28;20341;-37
2021/12/18 08:42:07;;;;;;;0.20;0.20;;;;;;;19.99;45.26;103512.13;5109021;28;20096;-37
2021/12/18 08:44:33;;;;;;;0.20;0.20;;;;;;;19.99;45.13;103520.41;5103640;28;20051;-37
2021/12/18 08:46:59;;;;;;;0.20;0.20;;;;;;;19.99;44.94;103518.53;5114070;28;20058;-37
2021/12/18 08:49:26;;;;;;;0.20;0.20;;;;;;;19.99;44.86;103514.88;5113276;28;20126;-37
2021/12/18 08:51:53;;;;;;;0.20;0.20;;;;;;;19.98;44.90;103522.34;5115561;28;20047;-36
2021/12/18 08:54:19;;;;;;;0.20;0.20;;;;;;;19.99;45.22;103517.66;5105734;28;20044;-37
2021/12/18 08:57:04;;;;;;;0.20;0.20;;;;;;;19.99;44.84;103514.88;5089655;28;20048;-37
2021/12/18 08:59:30;;;;;;;0.20;0.20;;;;;;;19.99;45.22;103514.88;5111054;28;20039;-37
2021/12/18 09:01:55;;;;;;;0.20;0.20;;;;;;;19.98;45.24;103516.81;5114806;28;20059;-36
2021/12/18 09:04:21;;;;;;;0.20;0.20;;;;;;;19.99;45.26;103514.88;5109353;28;20035;-37
2021/12/18 09:06:47;;;;;;;0.20;0.20;;;;;;;19.99;45.01;103518.53;5105634;28;20075;-36
2021/12/18 09:09:13;;;;;;;0.20;0.20;;;;;;;19.97;45.07;103523.41;5113730;28;20047;-36
2021/12/18 09:11:38;;;;;;;0.20;0.20;;;;;;;19.98;45.24;103518.72;5111062;28;20047;-37
2021/12/18 09:14:04;;;;;;;0.20;0.20;;;;;;;19.99;45.07;103526.81;5109540;28;20413;-37
2021/12/18 09:16:32;;;;;;;0.20;0.20;;;;;;;19.97;44.92;103517.88;5108839;28;20094;-37
2021/12/18 09:18:57;;;;;;;0.20;0.20;;;;;;;19.98;45.29;103519.56;5113685;28;20397;-37
2021/12/18 09:21:23;;;;;;;0.20;0.20;;;;;;;19.98;45.15;103518.72;5106663;28;20065;-38
2021/12/18 09:23:49;;;;;;;0.20;0.20;;;;;;;19.98;45.17;103519.56;5113795;27;20531;-37
2021/12/18 09:26:15;;;;;;;0.20;0.20;;;;;;;19.98;45.24;103519.56;5112852;28;20410;-36
2021/12/18 09:28:41;;;;;;;0.20;0.20;;;;;;;19.97;45.02;103522.56;5107332;28;20051;-37
2021/12/18 09:31:06;;;;;;;0.30;0.30;;;;;;;19.97;45.03;103515.13;5109976;28;20047;-37
2021/12/18 09:33:32;;;;;;;0.20;0.20;;;;;;;19.96;44.88;103520.88;5111539;28;20039;-37
2021/12/18 09:35:58;;;;;;;0.20;0.20;;;;;;;19.97;45.11;103522.56;5108403;28;20043;-36
2021/12/18 09:38:23;;;;;;;0.20;0.20;;;;;;;19.96;45.25;103513.44;5116014;27;20111;-37
2021/12/18 09:40:49;;;;;;;0.20;0.20;;;;;;;19.97;45.33;103520.66;5106363;28;20047;-37
2021/12/18 09:43:15;;;;;;;0.20;0.20;;;;;;;19.97;45.28;103515.13;5112010;28;20035;-37
2021/12/18 09:45:46;;;;;;;0.20;0.20;;;;;;;19.98;45.07;103524.25;5108785;28;20048;-36
2021/12/18 09:48:12;;;;;;;0.20;0.20;;;;;;;19.97;44.89;103517.88;5106807;28;20047;-37
2021/12/18 09:50:38;;;;;;;0.20;0.20;;;;;;;19.96;44.95;103523.66;5110489;28;20137;-36
2021/12/18 09:53:05;;;;;;;0.20;0.20;;;;;;;19.97;45.00;103517.88;5107210;28;20462;-37
2021/12/18 09:55:31;;;;;;;0.13;0.13;;;;;;;19.97;45.18;103512.34;5109635;28;20036;-37
2021/12/18 09:57:57;;;;;;;0.20;0.20;;;;;;;19.97;45.31;103514.28;5100955;28;20507;-37
2021/12/18 10:00:24;;;;;;;0.20;0.20;;;;;;;19.96;45.18;103505.13;5114267;28;20088;-38
2021/12/18 10:02:50;;;;;;;0.20;0.20;;;;;;;19.95;45.27;103514.50;5110863;28;20443;-36
2021/12/18 10:05:22;;;;;;;0.20;0.20;;;;;;;19.94;45.13;103507.25;5104530;28;20071;-36
2021/12/18 10:08:12;;;;;;;0.20;0.20;;;;;;;19.96;45.35;103507.91;5109563;28;20052;-37
2021/12/18 10:10:57;;;;;;;0.20;0.20;;;;;;;19.96;45.20;103507.06;5102582;28;20046;-36
2021/12/18 10:13:23;;;;;;;0.20;0.20;;;;;;;19.95;45.18;103508.97;5105574;28;20051;-37
2021/12/18 10:16:07;;;;;;;0.20;0.20;;;;;;;19.96;45.01;103507.06;5109203;28;20046;-37
2021/12/18 10:18:32;;;;;;;0.20;0.20;;;;;;;19.96;45.19;103496.84;5110640;28;20046;-38
2021/12/18 10:21:16;;;;;;;0.20;0.20;;;;;;;19.97;45.18;103494.91;5108306;28;20048;-38
2021/12/18 10:23:43;;;;;;;0.20;0.20;;;;;;;19.96;45.06;103496.00;5110638;27;20044;-37
2021/12/18 10:26:30;;;;;;;0.20;0.20;;;;;;;19.95;45.16;103495.16;5101988;28;20085;-37
2021/12/18 10:28:56;;;;;;;0.20;0.20;;;;;;;19.95;45.18;103494.31;5096347;28;20071;-37
2021/12/18 10:31:39;;;;;;;0.20;0.20;;;;;;;19.95;45.00;103489.63;5111469;28;20050;-37
2021/12/18 10:34:25;;;;;;;0.20;0.20;;;;;;;19.95;45.08;103484.09;5110747;28;20044;-37
2021/12/18 10:37:13;;;;;;;0.20;0.20;;;;;;;19.95;45.15;103481.31;5095373;28;20035;-36
2021/12/18 10:39:44;;;;;;;0.20;0.20;;;;;;;19.95;44.98;103484.09;5114080;27;20049;-36
2021/12/18 10:42:40;;;;;;;0.20;0.20;;;;;;;19.96;45.01;103477.47;5110407;28;20036;-37
2021/12/18 10:45:12;;;;;;;0.20;0.20;;;;;;;19.95;45.08;103483.25;5095221;28;20047;-37
2021/12/18 10:48:02;;;;;;;0.20;0.20;;;;;;;19.96;44.95;103473.88;5095407;28;20050;-36
2021/12/18 10:53:18;;;;;;;0.20;0.20;;;;;;;19.95;45.29;103466.66;5155783;27;20952;-35
2021/12/18 10:55:51;;;;;;;0.20;0.20;;;;;;;19.94;44.81;103474.06;5122111;27;20491;-35
2021/12/18 10:58:21;;;;;;;0.20;0.20;;;;;;;19.95;45.36;103472.19;5129212;27;20135;-36
2021/12/18 11:00:50;;;;;;;0.20;0.20;;;;;;;19.95;45.32;103475.78;5149328;27;20038;-36
2021/12/18 11:03:22;;;;;;;0.20;0.20;;;;;;;19.95;45.12;103473.03;5125359;27;20057;-39
2021/12/18 11:06:09;;;;;;;0.20;0.20;;;;;;;19.94;45.01;103468.53;5146847;27;20046;-36
2021/12/18 11:08:53;;;;;;;0.20;0.20;;;;;;;19.94;45.10;103468.53;5144284;27;21257;-37
2021/12/18 11:14:06;;;;;;;0.20;0.20;;;;;;;19.95;44.96;103461.13;5133423;27;20474;-37
2021/12/18 11:16:35;;;;;;;0.20;0.20;;;;;;;19.95;45.34;103461.13;5147083;27;20126;-38
2021/12/18 11:19:04;;;;;;;0.20;0.20;;;;;;;19.96;45.17;103458.13;5146208;27;20512;-41
2021/12/18 11:21:29;;;;;;;;;;;;;;;19.95;45.02;103456.44;5158003;27;20047;-43
2021/12/18 11:24:02;;;;;;;0.20;0.20;;;;;;;19.94;45.27;103457.47;5129004;27;20358;-38
2021/12/18 11:26:33;;;;;;;0.20;0.20;;;;;;;19.93;44.93;103447.50;5125103;27;20522;-37
2021/12/18 11:29:00;;;;;;;0.20;0.20;;;;;;;19.93;45.25;103443.88;5148826;27;20461;-38
2021/12/18 11:31:26;;;;;;;0.20;0.20;;;;;;;19.93;45.27;103441.97;5149022;27;20043;-38
2021/12/18 11:33:52;;;;;;;0.20;0.20;;;;;;;19.95;45.20;103441.75;5147646;27;20095;-40
2021/12/18 11:36:18;;;;;;;0.20;0.20;;;;;;;19.93;45.00;103439.19;5149313;27;20039;-36
2021/12/18 11:38:44;;;;;;;0.20;0.20;;;;;;;19.95;45.27;103436.22;5143276;27;20035;-36
2021/12/18 11:41:18;;;;;;;0.20;0.20;;;;;;;19.93;45.12;103427.28;5146390;27;20053;-37
2021/12/18 11:43:46;;;;;;;0.20;0.20;;;;;;;19.94;44.83;103431.75;5125686;27;20043;-36
2021/12/18 11:46:33;;;;;;;0.20;0.20;;;;;;;19.94;44.86;103435.34;5146266;27;20105;-36
2021/12/18 11:49:04;;;;;;;0.20;0.20;;;;;;;19.94;45.12;103429.81;5113840;27;20118;-36
2021/12/18 11:51:29;;;;;;;0.20;0.20;;;;;;;19.94;45.20;103427.06;5129095;27;20043;-36
2021/12/18 11:53:55;;;;;;;0.20;0.20;;;;;;;19.93;44.89;103419.84;5127643;27;20056;-36
2021/12/18 11:56:22;;;;;;;0.20;0.20;;;;;;;19.94;45.08;103423.44;5145889;27;20473;-37
2021/12/18 11:58:48;;;;;;;0.20;0.20;;;;;;;19.94;44.84;103424.28;5147223;27;20050;-36
2021/12/18 12:01:20;;;;;;;0.20;0.20;;;;;;;19.94;44.99;103421.53;5146530;27;20050;-36
2021/12/18 12:06:36;;;;;;;0.20;0.20;;;;;;;19.93;45.35;103419.84;5169594;27;20209;-36
2021/12/18 12:09:44;;;;;;;0.20;0.20;;;;;;;19.93;45.02;103425.38;5111977;27;20130;-36
2021/12/18 12:12:09;;;;;;;0.20;0.20;;;;;;;19.93;45.29;103421.75;5105723;27;20046;-35
2021/12/18 12:14:39;;;;;;;0.20;0.20;;;;;;;19.92;45.06;103423.69;5147415;27;20046;-36
2021/12/18 12:17:11;;;;;;;0.20;0.20;;;;;;;19.93;45.01;103421.75;5146068;27;20038;-36